sensor_id;sensor_type;location;lat;lon;timestamp;pressure;altitude;pressure_sealevel;temperature
18782;BMP180;9519;51.890;8.970;2022-07-29T00:04:17;99528.00;;;17.80
18782;BMP180;9519;51.890;8.970;2022-07-29T00:09:19;99519.00;;;17.80
18782;BMP180;9519;51.890;8.970;2022-07-29T00:14:22;99518.00;;;17.70
18782;BMP180;9519;51.890;8.970;2022-07-29T00:19:24;99514.00;;;17.60
18782;BMP180;9519;51.890;8.970;2022-07-29T00:24:29;99500.00;;;17.60
18782;BMP180;9519;51.890;8.970;2022-07-29T00:29:32;99491.00;;;17.60
18782;BMP180;9519;51.890;8.970;2022-07-29T00:34:34;99491.00;;;17.60
18782;BMP180;9519;51.890;8.970;2022-07-29T00:39:54;99486.00;;;17.60
18782;BMP180;9519;51.890;8.970;2022-07-29T00:44:57;99476.00;;;17.60
18782;BMP180;9519;51.890;8.970;2022-07-29T00:50:00;99476.00;;;17.50
18782;BMP180;9519;51.890;8.970;2022-07-29T00:55:04;99483.00;;;17.50
18782;BMP180;9519;51.890;8.970;2022-07-29T01:00:11;99482.00;;;17.50
18782;BMP180;9519;51.890;8.970;2022-07-29T01:05:17;99465.00;;;17.50
18782;BMP180;9519;51.890;8.970;2022-07-29T01:10:21;99475.00;;;17.50
18782;BMP180;9519;51.890;8.970;2022-07-29T01:15:25;99468.00;;;17.50
18782;BMP180;9519;51.890;8.970;2022-07-29T01:20:44;99450.00;;;17.50
18782;BMP180;9519;51.890;8.970;2022-07-29T01:26:28;99439.00;;;17.40
18782;BMP180;9519;51.890;8.970;2022-07-29T01:31:43;99446.00;;;17.40
18782;BMP180;9519;51.890;8.970;2022-07-29T01:36:54;99431.00;;;17.30
18782;BMP180;9519;51.890;8.970;2022-07-29T01:42:06;99439.00;;;17.30
18782;BMP180;9519;51.890;8.970;2022-07-29T01:47:17;99443.00;;;17.30
18782;BMP180;9519;51.890;8.970;2022-07-29T01:52:31;99443.00;;;17.30
18782;BMP180;9519;51.890;8.970;2022-07-29T01:57:38;99436.00;;;17.20
18782;BMP180;9519;51.890;8.970;2022-07-29T02:02:46;99424.00;;;17.20
18782;BMP180;9519;51.890;8.970;2022-07-29T02:07:50;99431.00;;;17.10
18782;BMP180;9519;51.890;8.970;2022-07-29T02:12:56;99434.00;;;17.10
18782;BMP180;9519;51.890;8.970;2022-07-29T02:18:05;99433.00;;;17.10
18782;BMP180;9519;51.890;8.970;2022-07-29T02:23:11;99428.00;;;17.10
18782;BMP180;9519;51.890;8.970;2022-07-29T02:28:16;99425.00;;;17.00
18782;BMP180;9519;51.890;8.970;2022-07-29T02:33:22;99420.00;;;17.00
18782;BMP180;9519;51.890;8.970;2022-07-29T02:38:29;99413.00;;;16.90
18782;BMP180;9519;51.890;8.970;2022-07-29T02:43:55;99419.00;;;16.80
18782;BMP180;9519;51.890;8.970;2022-07-29T02:49:09;99422.00;;;16.70
18782;BMP180;9519;51.890;8.970;2022-07-29T02:54:21;99413.00;;;16.60
18782;BMP180;9519;51.890;8.970;2022-07-29T02:59:27;99411.00;;;16.50
18782;BMP180;9519;51.890;8.970;2022-07-29T03:04:35;99428.00;;;16.50
18782;BMP180;9519;51.890;8.970;2022-07-29T03:09:38;99429.00;;;16.50
18782;BMP180;9519;51.890;8.970;2022-07-29T03:14:42;99425.00;;;16.40
18782;BMP180;9519;51.890;8.970;2022-07-29T03:19:47;99414.00;;;16.40
18782;BMP180;9519;51.890;8.970;2022-07-29T03:24:49;99418.00;;;16.30
18782;BMP180;9519;51.890;8.970;2022-07-29T03:29:51;99411.00;;;16.20
18782;BMP180;9519;51.890;8.970;2022-07-29T03:34:55;99426.00;;;16.20
18782;BMP180;9519;51.890;8.970;2022-07-29T03:39:58;99425.00;;;16.10
18782;BMP180;9519;51.890;8.970;2022-07-29T03:45:05;99431.00;;;16.00
18782;BMP180;9519;51.890;8.970;2022-07-29T03:50:11;99424.00;;;16.00
18782;BMP180;9519;51.890;8.970;2022-07-29T03:55:16;99411.00;;;16.00
18782;BMP180;9519;51.890;8.970;2022-07-29T04:00:19;99404.00;;;15.90
18782;BMP180;9519;51.890;8.970;2022-07-29T04:05:22;99411.00;;;16.00
18782;BMP180;9519;51.890;8.970;2022-07-29T04:10:25;99409.00;;;16.00
18782;BMP180;9519;51.890;8.970;2022-07-29T04:15:27;99401.00;;;16.00
18782;BMP180;9519;51.890;8.970;2022-07-29T04:20:30;99398.00;;;16.10
18782;BMP180;9519;51.890;8.970;2022-07-29T04:25:33;99408.00;;;16.10
18782;BMP180;9519;51.890;8.970;2022-07-29T04:30:36;99409.00;;;16.10
18782;BMP180;9519;51.890;8.970;2022-07-29T04:35:40;99416.00;;;16.20
18782;BMP180;9519;51.890;8.970;2022-07-29T04:40:42;99414.00;;;16.20
18782;BMP180;9519;51.890;8.970;2022-07-29T04:45:44;99416.00;;;16.20
18782;BMP180;9519;51.890;8.970;2022-07-29T04:50:47;99413.00;;;16.30
18782;BMP180;9519;51.890;8.970;2022-07-29T04:55:52;99411.00;;;16.40
18782;BMP180;9519;51.890;8.970;2022-07-29T05:00:54;99417.00;;;16.40
18782;BMP180;9519;51.890;8.970;2022-07-29T05:05:58;99418.00;;;16.50
18782;BMP180;9519;51.890;8.970;2022-07-29T05:11:00;99401.00;;;16.50
18782;BMP180;9519;51.890;8.970;2022-07-29T05:16:02;99409.00;;;16.50
18782;BMP180;9519;51.890;8.970;2022-07-29T05:21:06;99404.00;;;16.50
18782;BMP180;9519;51.890;8.970;2022-07-29T05:26:08;99407.00;;;16.50
18782;BMP180;9519;51.890;8.970;2022-07-29T05:31:10;99410.00;;;16.60
18782;BMP180;9519;51.890;8.970;2022-07-29T05:36:13;99395.00;;;16.60
18782;BMP180;9519;51.890;8.970;2022-07-29T05:41:15;99409.00;;;16.60
18782;BMP180;9519;51.890;8.970;2022-07-29T05:46:18;99408.00;;;16.70
18782;BMP180;9519;51.890;8.970;2022-07-29T05:51:21;99403.00;;;16.70
18782;BMP180;9519;51.890;8.970;2022-07-29T05:56:23;99416.00;;;16.70
18782;BMP180;9519;51.890;8.970;2022-07-29T06:01:25;99410.00;;;16.70
18782;BMP180;9519;51.890;8.970;2022-07-29T06:06:29;99407.00;;;16.70
18782;BMP180;9519;51.890;8.970;2022-07-29T06:11:31;99406.00;;;16.80
18782;BMP180;9519;51.890;8.970;2022-07-29T06:16:33;99414.00;;;16.80
18782;BMP180;9519;51.890;8.970;2022-07-29T06:21:41;99415.00;;;16.80
18782;BMP180;9519;51.890;8.970;2022-07-29T06:26:44;99415.00;;;16.90
18782;BMP180;9519;51.890;8.970;2022-07-29T06:31:46;99419.00;;;16.90
18782;BMP180;9519;51.890;8.970;2022-07-29T06:36:49;99397.00;;;17.00
18782;BMP180;9519;51.890;8.970;2022-07-29T06:41:55;99402.00;;;17.00
18782;BMP180;9519;51.890;8.970;2022-07-29T06:46:57;99411.00;;;17.00
18782;BMP180;9519;51.890;8.970;2022-07-29T06:52:01;99423.00;;;17.20
18782;BMP180;9519;51.890;8.970;2022-07-29T06:57:04;99410.00;;;17.30
18782;BMP180;9519;51.890;8.970;2022-07-29T07:02:06;99420.00;;;17.40
18782;BMP180;9519;51.890;8.970;2022-07-29T07:07:10;99416.00;;;17.50
18782;BMP180;9519;51.890;8.970;2022-07-29T07:12:12;99412.00;;;17.60
18782;BMP180;9519;51.890;8.970;2022-07-29T07:17:14;99412.00;;;17.70
18782;BMP180;9519;51.890;8.970;2022-07-29T07:22:18;99411.00;;;17.90
18782;BMP180;9519;51.890;8.970;2022-07-29T07:27:20;99406.00;;;18.10
18782;BMP180;9519;51.890;8.970;2022-07-29T07:32:22;99396.00;;;18.30
18782;BMP180;9519;51.890;8.970;2022-07-29T07:37:26;99393.00;;;18.40
18782;BMP180;9519;51.890;8.970;2022-07-29T07:42:28;99401.00;;;18.60
18782;BMP180;9519;51.890;8.970;2022-07-29T07:47:30;99407.00;;;18.80
18782;BMP180;9519;51.890;8.970;2022-07-29T07:52:34;99409.00;;;19.10
18782;BMP180;9519;51.890;8.970;2022-07-29T07:57:36;99425.00;;;19.30
18782;BMP180;9519;51.890;8.970;2022-07-29T08:02:38;99419.00;;;19.50
18782;BMP180;9519;51.890;8.970;2022-07-29T08:07:43;99422.00;;;19.70
18782;BMP180;9519;51.890;8.970;2022-07-29T08:12:45;99416.00;;;19.90
18782;BMP180;9519;51.890;8.970;2022-07-29T08:17:47;99426.00;;;20.10
18782;BMP180;9519;51.890;8.970;2022-07-29T08:22:51;99422.00;;;20.20
18782;BMP180;9519;51.890;8.970;2022-07-29T08:27:54;99427.00;;;20.30
18782;BMP180;9519;51.890;8.970;2022-07-29T08:32:56;99421.00;;;20.40
18782;BMP180;9519;51.890;8.970;2022-07-29T08:37:59;99416.00;;;20.50
18782;BMP180;9519;51.890;8.970;2022-07-29T08:43:06;99417.00;;;20.70
18782;BMP180;9519;51.890;8.970;2022-07-29T08:48:08;99417.00;;;20.70
18782;BMP180;9519;51.890;8.970;2022-07-29T08:53:15;99421.00;;;20.80
18782;BMP180;9519;51.890;8.970;2022-07-29T08:58:18;99415.00;;;20.90
18782;BMP180;9519;51.890;8.970;2022-07-29T09:03:23;99411.00;;;21.00
18782;BMP180;9519;51.890;8.970;2022-07-29T09:08:27;99416.00;;;21.00
18782;BMP180;9519;51.890;8.970;2022-07-29T09:13:29;99411.00;;;21.20
18782;BMP180;9519;51.890;8.970;2022-07-29T09:18:36;99409.00;;;21.30
18782;BMP180;9519;51.890;8.970;2022-07-29T09:24:01;99411.00;;;21.30
18782;BMP180;9519;51.890;8.970;2022-07-29T09:29:11;99398.00;;;21.40
18782;BMP180;9519;51.890;8.970;2022-07-29T09:34:17;99408.00;;;21.40
18782;BMP180;9519;51.890;8.970;2022-07-29T09:39:32;99396.00;;;21.50
18782;BMP180;9519;51.890;8.970;2022-07-29T09:44:45;99478.00;;;21.60
18782;BMP180;9519;51.890;8.970;2022-07-29T09:49:55;99473.00;;;21.70
18782;BMP180;9519;51.890;8.970;2022-07-29T09:55:08;99476.00;;;21.90
18782;BMP180;9519;51.890;8.970;2022-07-29T10:00:14;99467.00;;;22.10
18782;BMP180;9519;51.890;8.970;2022-07-29T10:05:19;99473.00;;;22.30
18782;BMP180;9519;51.890;8.970;2022-07-29T10:10:26;99469.00;;;22.40
18782;BMP180;9519;51.890;8.970;2022-07-29T10:15:30;99473.00;;;22.50
18782;BMP180;9519;51.890;8.970;2022-07-29T10:20:35;99468.00;;;22.60
18782;BMP180;9519;51.890;8.970;2022-07-29T10:25:41;99464.00;;;22.70
18782;BMP180;9519;51.890;8.970;2022-07-29T10:30:46;99444.00;;;22.80
18782;BMP180;9519;51.890;8.970;2022-07-29T10:36:21;99452.00;;;22.80
18782;BMP180;9519;51.890;8.970;2022-07-29T10:41:43;99447.00;;;22.90
18782;BMP180;9519;51.890;8.970;2022-07-29T10:46:50;99453.00;;;22.90
18782;BMP180;9519;51.890;8.970;2022-07-29T10:52:05;99459.00;;;23.00
18782;BMP180;9519;51.890;8.970;2022-07-29T10:57:18;99456.00;;;23.00
18782;BMP180;9519;51.890;8.970;2022-07-29T11:02:44;99457.00;;;23.00
18782;BMP180;9519;51.890;8.970;2022-07-29T11:08:21;99459.00;;;23.20
18782;BMP180;9519;51.890;8.970;2022-07-29T11:13:50;99465.00;;;23.30
18782;BMP180;9519;51.890;8.970;2022-07-29T11:19:21;99465.00;;;23.50
18782;BMP180;9519;51.890;8.970;2022-07-29T11:24:26;99461.00;;;23.70
18782;BMP180;9519;51.890;8.970;2022-07-29T11:29:31;99466.00;;;24.00
18782;BMP180;9519;51.890;8.970;2022-07-29T11:34:36;99462.00;;;24.20
18782;BMP180;9519;51.890;8.970;2022-07-29T11:39:42;99460.00;;;24.40
18782;BMP180;9519;51.890;8.970;2022-07-29T11:44:58;99453.00;;;24.60
18782;BMP180;9519;51.890;8.970;2022-07-29T11:50:04;99445.00;;;24.80
18782;BMP180;9519;51.890;8.970;2022-07-29T11:55:07;99437.00;;;24.80
18782;BMP180;9519;51.890;8.970;2022-07-29T12:00:12;99444.00;;;25.00
18782;BMP180;9519;51.890;8.970;2022-07-29T12:05:32;99436.00;;;25.10
18782;BMP180;9519;51.890;8.970;2022-07-29T12:10:35;99426.00;;;25.20
18782;BMP180;9519;51.890;8.970;2022-07-29T12:15:39;99426.00;;;25.30
18782;BMP180;9519;51.890;8.970;2022-07-29T12:20:42;99418.00;;;25.40
18782;BMP180;9519;51.890;8.970;2022-07-29T12:25:44;99410.00;;;25.40
18782;BMP180;9519;51.890;8.970;2022-07-29T12:30:49;99404.00;;;25.50
18782;BMP180;9519;51.890;8.970;2022-07-29T12:35:58;99406.00;;;25.60
18782;BMP180;9519;51.890;8.970;2022-07-29T12:41:00;99408.00;;;25.70
18782;BMP180;9519;51.890;8.970;2022-07-29T12:46:14;99402.00;;;25.70
18782;BMP180;9519;51.890;8.970;2022-07-29T12:51:16;99389.00;;;25.90
18782;BMP180;9519;51.890;8.970;2022-07-29T12:56:19;99389.00;;;26.10
18782;BMP180;9519;51.890;8.970;2022-07-29T13:01:23;99379.00;;;26.30
18782;BMP180;9519;51.890;8.970;2022-07-29T13:06:37;99375.00;;;26.50
18782;BMP180;9519;51.890;8.970;2022-07-29T13:11:47;99371.00;;;26.70
18782;BMP180;9519;51.890;8.970;2022-07-29T13:17:07;99371.00;;;27.00
18782;BMP180;9519;51.890;8.970;2022-07-29T13:22:11;99371.00;;;27.10
18782;BMP180;9519;51.890;8.970;2022-07-29T13:27:15;99360.00;;;27.20
18782;BMP180;9519;51.890;8.970;2022-07-29T13:32:19;99363.00;;;27.40
18782;BMP180;9519;51.890;8.970;2022-07-29T13:37:21;99347.00;;;27.40
18782;BMP180;9519;51.890;8.970;2022-07-29T13:42:24;99349.00;;;27.60
18782;BMP180;9519;51.890;8.970;2022-07-29T13:47:28;99340.00;;;27.80
18782;BMP180;9519;51.890;8.970;2022-07-29T13:52:31;99337.00;;;28.10
18782;BMP180;9519;51.890;8.970;2022-07-29T13:57:34;99321.00;;;28.40
18782;BMP180;9519;51.890;8.970;2022-07-29T14:02:37;99330.00;;;28.80
18782;BMP180;9519;51.890;8.970;2022-07-29T14:07:40;99325.00;;;29.00
18782;BMP180;9519;51.890;8.970;2022-07-29T14:12:42;99319.00;;;29.20
18782;BMP180;9519;51.890;8.970;2022-07-29T14:17:46;99316.00;;;29.30
18782;BMP180;9519;51.890;8.970;2022-07-29T14:22:48;99307.00;;;29.30
18782;BMP180;9519;51.890;8.970;2022-07-29T14:27:50;99314.00;;;29.30
18782;BMP180;9519;51.890;8.970;2022-07-29T14:32:55;99312.00;;;29.30
18782;BMP180;9519;51.890;8.970;2022-07-29T14:37:57;99306.00;;;29.60
18782;BMP180;9519;51.890;8.970;2022-07-29T14:42:59;99294.00;;;29.80
18782;BMP180;9519;51.890;8.970;2022-07-29T14:48:04;99294.00;;;29.80
18782;BMP180;9519;51.890;8.970;2022-07-29T14:53:06;99298.00;;;29.80
18782;BMP180;9519;51.890;8.970;2022-07-29T14:58:08;99308.00;;;29.70
18782;BMP180;9519;51.890;8.970;2022-07-29T15:03:12;99314.00;;;29.40
18782;BMP180;9519;51.890;8.970;2022-07-29T15:08:14;99312.00;;;29.10
18782;BMP180;9519;51.890;8.970;2022-07-29T15:13:16;99316.00;;;28.90
18782;BMP180;9519;51.890;8.970;2022-07-29T15:18:20;99314.00;;;28.60
18782;BMP180;9519;51.890;8.970;2022-07-29T15:23:22;99322.00;;;28.40
18782;BMP180;9519;51.890;8.970;2022-07-29T15:28:24;99315.00;;;28.20
18782;BMP180;9519;51.890;8.970;2022-07-29T15:33:28;99318.00;;;28.10
18782;BMP180;9519;51.890;8.970;2022-07-29T15:38:30;99307.00;;;28.00
18782;BMP180;9519;51.890;8.970;2022-07-29T15:43:33;99291.00;;;27.80
18782;BMP180;9519;51.890;8.970;2022-07-29T15:48:38;99306.00;;;27.90
18782;BMP180;9519;51.890;8.970;2022-07-29T15:53:40;99298.00;;;27.80
18782;BMP180;9519;51.890;8.970;2022-07-29T15:58:43;99293.00;;;27.70
18782;BMP180;9519;51.890;8.970;2022-07-29T16:03:47;99290.00;;;27.50
18782;BMP180;9519;51.890;8.970;2022-07-29T16:08:49;99295.00;;;27.30
18782;BMP180;9519;51.890;8.970;2022-07-29T16:13:51;99299.00;;;27.10
18782;BMP180;9519;51.890;8.970;2022-07-29T16:18:54;99299.00;;;27.00
18782;BMP180;9519;51.890;8.970;2022-07-29T16:23:58;99298.00;;;26.80
18782;BMP180;9519;51.890;8.970;2022-07-29T16:29:01;99312.00;;;26.50
18782;BMP180;9519;51.890;8.970;2022-07-29T16:34:05;99305.00;;;26.30
18782;BMP180;9519;51.890;8.970;2022-07-29T16:39:07;99310.00;;;26.10
18782;BMP180;9519;51.890;8.970;2022-07-29T16:44:10;99323.00;;;26.00
18782;BMP180;9519;51.890;8.970;2022-07-29T16:49:14;99326.00;;;25.80
18782;BMP180;9519;51.890;8.970;2022-07-29T16:54:16;99321.00;;;25.70
18782;BMP180;9519;51.890;8.970;2022-07-29T16:59:18;99328.00;;;25.60
18782;BMP180;9519;51.890;8.970;2022-07-29T17:04:21;99326.00;;;25.60
18782;BMP180;9519;51.890;8.970;2022-07-29T17:09:24;99322.00;;;25.50
18782;BMP180;9519;51.890;8.970;2022-07-29T17:14:28;99325.00;;;25.40
18782;BMP180;9519;51.890;8.970;2022-07-29T17:19:34;99327.00;;;25.30
18782;BMP180;9519;51.890;8.970;2022-07-29T17:24:36;99328.00;;;25.10
18782;BMP180;9519;51.890;8.970;2022-07-29T17:29:38;99340.00;;;24.90
18782;BMP180;9519;51.890;8.970;2022-07-29T17:34:42;99340.00;;;24.60
18782;BMP180;9519;51.890;8.970;2022-07-29T17:39:46;99349.00;;;24.20
18782;BMP180;9519;51.890;8.970;2022-07-29T17:44:48;99363.00;;;24.00
18782;BMP180;9519;51.890;8.970;2022-07-29T17:49:52;99376.00;;;23.70
18782;BMP180;9519;51.890;8.970;2022-07-29T17:54:54;99379.00;;;23.40
18782;BMP180;9519;51.890;8.970;2022-07-29T17:59:56;99391.00;;;23.20
18782;BMP180;9519;51.890;8.970;2022-07-29T18:04:59;99388.00;;;23.00
18782;BMP180;9519;51.890;8.970;2022-07-29T18:10:02;99395.00;;;22.90
18782;BMP180;9519;51.890;8.970;2022-07-29T18:15:05;99385.00;;;22.70
18782;BMP180;9519;51.890;8.970;2022-07-29T18:20:10;99392.00;;;22.60
18782;BMP180;9519;51.890;8.970;2022-07-29T18:25:13;99403.00;;;22.40
18782;BMP180;9519;51.890;8.970;2022-07-29T18:30:15;99412.00;;;22.40
18782;BMP180;9519;51.890;8.970;2022-07-29T18:35:19;99409.00;;;22.30
18782;BMP180;9519;51.890;8.970;2022-07-29T18:40:21;99411.00;;;22.20
18782;BMP180;9519;51.890;8.970;2022-07-29T18:45:25;99416.00;;;22.10
18782;BMP180;9519;51.890;8.970;2022-07-29T18:50:28;99422.00;;;22.10
18782;BMP180;9519;51.890;8.970;2022-07-29T18:55:31;99428.00;;;22.00
18782;BMP180;9519;51.890;8.970;2022-07-29T19:00:35;99445.00;;;21.90
18782;BMP180;9519;51.890;8.970;2022-07-29T19:05:39;99373.00;;;21.70
18782;BMP180;9519;51.890;8.970;2022-07-29T19:10:41;99477.00;;;21.50
18782;BMP180;9519;51.890;8.970;2022-07-29T19:15:43;99509.00;;;21.40
18782;BMP180;9519;51.890;8.970;2022-07-29T19:20:47;99523.00;;;21.20
18782;BMP180;9519;51.890;8.970;2022-07-29T19:25:49;99548.00;;;21.10
18782;BMP180;9519;51.890;8.970;2022-07-29T19:30:51;99565.00;;;20.70
18782;BMP180;9519;51.890;8.970;2022-07-29T19:35:55;99582.00;;;20.50
18782;BMP180;9519;51.890;8.970;2022-07-29T19:40:58;99588.00;;;19.90
18782;BMP180;9519;51.890;8.970;2022-07-29T19:46:00;99510.00;;;19.40
18782;BMP180;9519;51.890;8.970;2022-07-29T19:51:03;99510.00;;;18.90
18782;BMP180;9519;51.890;8.970;2022-07-29T19:56:06;99500.00;;;18.80
18782;BMP180;9519;51.890;8.970;2022-07-29T20:01:08;99514.00;;;18.60
18782;BMP180;9519;51.890;8.970;2022-07-29T20:06:12;99532.00;;;18.40
18782;BMP180;9519;51.890;8.970;2022-07-29T20:11:15;99545.00;;;18.30
18782;BMP180;9519;51.890;8.970;2022-07-29T20:16:17;99560.00;;;18.10
18782;BMP180;9519;51.890;8.970;2022-07-29T20:21:20;99567.00;;;17.90
18782;BMP180;9519;51.890;8.970;2022-07-29T20:26:22;99564.00;;;17.70
18782;BMP180;9519;51.890;8.970;2022-07-29T20:31:24;99576.00;;;17.60
18782;BMP180;9519;51.890;8.970;2022-07-29T20:36:28;99594.00;;;17.60
18782;BMP180;9519;51.890;8.970;2022-07-29T20:41:32;99590.00;;;17.60
18782;BMP180;9519;51.890;8.970;2022-07-29T20:46:38;99588.00;;;17.70
18782;BMP180;9519;51.890;8.970;2022-07-29T20:51:41;99593.00;;;17.60
18782;BMP180;9519;51.890;8.970;2022-07-29T20:56:43;99601.00;;;17.70
18782;BMP180;9519;51.890;8.970;2022-07-29T21:01:45;99604.00;;;17.80
18782;BMP180;9519;51.890;8.970;2022-07-29T21:06:49;99610.00;;;17.90
18782;BMP180;9519;51.890;8.970;2022-07-29T21:11:51;99610.00;;;17.80
18782;BMP180;9519;51.890;8.970;2022-07-29T21:16:53;99615.00;;;17.80
18782;BMP180;9519;51.890;8.970;2022-07-29T21:21:56;99725.00;;;17.90
18782;BMP180;9519;51.890;8.970;2022-07-29T21:26:59;99719.00;;;17.90
18782;BMP180;9519;51.890;8.970;2022-07-29T21:32:15;99713.00;;;17.90
18782;BMP180;9519;51.890;8.970;2022-07-29T21:37:18;99712.00;;;17.90
18782;BMP180;9519;51.890;8.970;2022-07-29T21:42:20;99710.00;;;17.90
18782;BMP180;9519;51.890;8.970;2022-07-29T21:47:22;99702.00;;;17.90
18782;BMP180;9519;51.890;8.970;2022-07-29T21:52:26;99687.00;;;17.90
18782;BMP180;9519;51.890;8.970;2022-07-29T21:57:28;99694.00;;;17.80
18782;BMP180;9519;51.890;8.970;2022-07-29T22:02:30;99672.00;;;17.80
18782;BMP180;9519;51.890;8.970;2022-07-29T22:07:34;99658.00;;;17.80
18782;BMP180;9519;51.890;8.970;2022-07-29T22:12:36;99640.00;;;17.70
18782;BMP180;9519;51.890;8.970;2022-07-29T22:17:38;99639.00;;;17.70
18782;BMP180;9519;51.890;8.970;2022-07-29T22:22:41;99638.00;;;17.70
18782;BMP180;9519;51.890;8.970;2022-07-29T22:27:44;99630.00;;;17.60
18782;BMP180;9519;51.890;8.970;2022-07-29T22:32:46;99616.00;;;17.60
18782;BMP180;9519;51.890;8.970;2022-07-29T22:37:50;99623.00;;;17.60
18782;BMP180;9519;51.890;8.970;2022-07-29T22:42:53;99629.00;;;17.50
18782;BMP180;9519;51.890;8.970;2022-07-29T22:47:55;99619.00;;;17.40
18782;BMP180;9519;51.890;8.970;2022-07-29T22:52:58;99622.00;;;17.30
18782;BMP180;9519;51.890;8.970;2022-07-29T22:58:00;99626.00;;;17.30
18782;BMP180;9519;51.890;8.970;2022-07-29T23:03:04;99623.00;;;17.30
18782;BMP180;9519;51.890;8.970;2022-07-29T23:08:08;99630.00;;;17.20
18782;BMP180;9519;51.890;8.970;2022-07-29T23:13:10;99621.00;;;17.10
18782;BMP180;9519;51.890;8.970;2022-07-29T23:18:12;99631.00;;;16.90
18782;BMP180;9519;51.890;8.970;2022-07-29T23:23:16;99631.00;;;16.70
18782;BMP180;9519;51.890;8.970;2022-07-29T23:28:18;99636.00;;;16.60
18782;BMP180;9519;51.890;8.970;2022-07-29T23:33:20;99627.00;;;16.50
18782;BMP180;9519;51.890;8.970;2022-07-29T23:38:24;99624.00;;;16.50
18782;BMP180;9519;51.890;8.970;2022-07-29T23:43:27;99631.00;;;16.40
18782;BMP180;9519;51.890;8.970;2022-07-29T23:48:29;99632.00;;;16.40
18782;BMP180;9519;51.890;8.970;2022-07-29T23:53:36;99626.00;;;16.50
18782;BMP180;9519;51.890;8.970;2022-07-29T23:58:38;99627.00;;;16.40
